Time;durP1;ratioP1;P1;durP2;ratioP2;P2;SDS_P1;SDS_P2;PMS_P1;PMS_P2;Temp;Humidity;BMP_temperature;BMP_pressure;BME280_temperature;BME280_humidity;BME280_pressure;Samples;Min_cycle;Max_cycle;Signal;HPM_P1;HPM_P2
2022/12/05 00:02:25;;;;;;;24.73;14.60;;;;;10.00;101620.00;;;;5010491;28;20200;-74
2022/12/05 00:04:52;;;;;;;23.40;14.48;;;;;10.00;101625.00;;;;5008372;28;20614;-75
2022/12/05 00:07:21;;;;;;;24.83;14.82;;;;;10.00;101622.00;;;;5011684;28;20201;-75
2022/12/05 00:09:49;;;;;;;22.05;13.63;;;;;10.00;101621.00;;;;5028027;28;20199;-75
2022/12/05 00:12:17;;;;;;;23.80;14.07;;;;;10.00;101629.00;;;;5008839;28;20232;-75
2022/12/05 00:14:44;;;;;;;24.95;15.15;;;;;10.00;101620.00;;;;5018505;28;20204;-75
2022/12/05 00:17:11;;;;;;;22.73;13.75;;;;;10.00;101625.00;;;;5021951;28;20688;-74
2022/12/05 00:19:39;;;;;;;22.90;13.45;;;;;10.10;101632.00;;;;5020340;28;20196;-75
2022/12/05 00:22:07;;;;;;;23.65;13.50;;;;;10.10;101627.00;;;;5012983;28;20196;-75
2022/12/05 00:24:35;;;;;;;24.25;13.15;;;;;10.10;101634.00;;;;5010683;28;20200;-75
2022/12/05 00:27:02;;;;;;;21.17;12.63;;;;;10.10;101626.00;;;;5008096;28;20228;-75
2022/12/05 00:29:30;;;;;;;22.33;13.98;;;;;10.10;101622.00;;;;5008373;28;20203;-75
2022/12/05 00:31:57;;;;;;;20.85;13.60;;;;;10.10;101627.00;;;;5007262;28;20228;-75
2022/12/05 00:34:25;;;;;;;20.35;12.15;;;;;10.10;101631.00;;;;5007569;28;20200;-75
2022/12/05 00:36:52;;;;;;;22.02;13.48;;;;;10.10;101624.00;;;;5015862;28;20575;-75
2022/12/05 00:39:19;;;;;;;23.33;13.85;;;;;10.10;101632.00;;;;5007691;28;20205;-75
2022/12/05 00:41:48;;;;;;;22.95;13.85;;;;;10.10;101627.00;;;;5019454;28;20276;-74
2022/12/05 00:44:15;;;;;;;24.15;13.35;;;;;10.10;101621.00;;;;5026735;28;20220;-75
2022/12/05 00:46:43;;;;;;;21.90;13.13;;;;;10.10;101625.00;;;;5021745;28;20189;-75
2022/12/05 00:49:11;;;;;;;22.23;13.60;;;;;10.10;101620.00;;;;5019514;28;20211;-74
2022/12/05 00:51:41;;;;;;;25.58;14.75;;;;;10.10;101618.00;;;;5022280;28;20712;-75
2022/12/05 00:54:12;;;;;;;22.88;14.07;;;;;10.10;101624.00;;;;5012231;28;20220;-75
2022/12/05 00:56:39;;;;;;;22.15;13.68;;;;;10.10;101619.00;;;;5008798;28;20204;-75
2022/12/05 00:59:12;;;;;;;20.60;13.43;;;;;10.10;101620.00;;;;5013512;28;20203;-75
2022/12/05 01:01:41;;;;;;;19.52;13.18;;;;;10.10;101618.00;;;;5026396;28;20202;-75
2022/12/05 01:04:11;;;;;;;21.88;13.18;;;;;10.10;101618.00;;;;5028508;28;20691;-75
2022/12/05 01:06:41;;;;;;;23.70;14.27;;;;;10.10;101620.00;;;;5020670;28;20210;-75
2022/12/05 01:09:10;;;;;;;23.17;13.88;;;;;10.20;101627.00;;;;5009505;28;20201;-75
2022/12/05 01:11:38;;;;;;;22.58;12.95;;;;;10.20;101616.00;;;;5022097;28;20217;-75
2022/12/05 01:14:06;;;;;;;20.77;12.45;;;;;10.20;101619.00;;;;5008390;28;20201;-75
2022/12/05 01:16:37;;;;;;;21.55;12.65;;;;;10.20;101622.00;;;;5007910;28;20201;-75
2022/12/05 01:19:06;;;;;;;24.65;13.80;;;;;10.20;101618.00;;;;5011506;28;20205;-75
2022/12/05 01:21:33;;;;;;;22.75;13.80;;;;;10.20;101614.00;;;;5014734;28;20224;-75
2022/12/05 01:24:01;;;;;;;22.20;13.60;;;;;10.20;101619.00;;;;5009859;28;20200;-75
2022/12/05 01:26:29;;;;;;;20.23;12.50;;;;;10.20;101623.00;;;;5010717;28;20200;-75
2022/12/05 01:28:56;;;;;;;21.63;13.20;;;;;10.20;101627.00;;;;5026039;28;20205;-75
2022/12/05 01:31:28;;;;;;;22.20;14.32;;;;;10.20;101622.00;;;;5020840;28;20219;-75
2022/12/05 01:33:59;;;;;;;19.60;12.05;;;;;10.20;101629.00;;;;5025477;28;20647;-75
2022/12/05 01:36:28;;;;;;;19.88;11.70;;;;;10.20;101625.00;;;;5021687;28;20308;-75
2022/12/05 01:38:56;;;;;;;21.75;13.10;;;;;10.20;101630.00;;;;5018103;28;20193;-74
2022/12/05 01:41:26;;;;;;;20.67;12.75;;;;;10.20;101628.00;;;;5020087;28;20343;-75
2022/12/05 01:43:56;;;;;;;18.83;11.85;;;;;10.20;101634.00;;;;5015172;28;20206;-75
2022/12/05 01:46:24;;;;;;;21.27;12.38;;;;;10.30;101631.00;;;;5011785;28;20212;-74
2022/12/05 01:48:54;;;;;;;20.27;12.23;;;;;10.30;101631.00;;;;5022112;28;20204;-75
2022/12/05 01:51:24;;;;;;;19.88;12.07;;;;;10.30;101635.00;;;;5019387;28;20288;-75
2022/12/05 01:53:51;;;;;;;22.05;12.45;;;;;10.30;101627.00;;;;5011722;28;20207;-75
2022/12/05 01:56:19;;;;;;;20.98;11.88;;;;;10.30;101628.00;;;;5021732;28;20209;-75
2022/12/05 01:58:48;;;;;;;21.83;13.27;;;;;10.30;101629.00;;;;5023340;28;20681;-74
2022/12/05 02:01:17;;;;;;;23.88;13.05;;;;;10.30;101634.00;;;;5022389;28;20215;-74
2022/12/05 02:03:48;;;;;;;19.48;11.65;;;;;10.30;101627.00;;;;5017349;28;20220;-75
2022/12/05 02:06:15;;;;;;;21.20;13.65;;;;;10.30;101636.00;;;;5013285;28;20209;-74
2022/12/05 02:08:46;;;;;;;20.60;13.23;;;;;10.30;101636.00;;;;5018556;28;21083;-75
2022/12/05 02:11:14;;;;;;;20.00;11.82;;;;;10.30;101629.00;;;;5029775;28;20193;-75
2022/12/05 02:14:06;;;;;;;17.60;10.90;;;;;10.20;101630.00;;;;5009582;28;20197;-75
2022/12/05 02:16:46;;;;;;;19.05;11.80;;;;;10.30;101626.00;;;;5013231;28;20193;-75
2022/12/05 02:19:44;;;;;;;20.63;12.20;;;;;10.20;101624.00;;;;5010869;28;20231;-75
2022/12/05 02:22:50;;;;;;;19.73;11.65;;;;;10.20;101625.00;;;;5009465;28;20208;-75
2022/12/05 02:25:52;;;;;;;15.98;10.32;;;;;10.20;101624.00;;;;4986910;28;20205;-75
2022/12/05 02:28:53;;;;;;;17.65;10.85;;;;;10.20;101617.00;;;;4983993;28;20203;-75
2022/12/05 02:31:31;;;;;;;18.55;11.50;;;;;10.20;101621.00;;;;5009021;28;20201;-75
2022/12/05 02:34:06;;;;;;;20.88;11.60;;;;;10.30;101629.00;;;;5010131;28;20914;-74
2022/12/05 02:36:39;;;;;;;21.67;12.88;;;;;10.30;101624.00;;;;5021289;28;20224;-75
2022/12/05 02:39:15;;;;;;;16.92;11.00;;;;;10.30;101626.00;;;;5010459;28;20683;-75
2022/12/05 02:41:49;;;;;;;21.23;12.63;;;;;10.30;101629.00;;;;5021231;28;20659;-74
2022/12/05 02:44:22;;;;;;;21.38;11.18;;;;;10.30;101627.00;;;;5028290;28;20203;-75
2022/12/05 02:46:53;;;;;;;17.95;10.48;;;;;10.30;101626.00;;;;5030428;28;20200;-75
2022/12/05 02:49:25;;;;;;;17.63;11.52;;;;;10.30;101620.00;;;;5016657;28;20193;-74
2022/12/05 02:51:56;;;;;;;20.70;11.13;;;;;10.30;101622.00;;;;5012049;28;20221;-75
2022/12/05 02:54:29;;;;;;;21.38;11.73;;;;;10.30;101630.00;;;;5012380;28;20204;-75
2022/12/05 02:56:59;;;;;;;19.02;11.02;;;;;10.40;101630.00;;;;5009490;28;20208;-75
2022/12/05 02:59:26;;;;;;;19.17;12.15;;;;;10.40;101632.00;;;;5010978;28;20193;-75
2022/12/05 03:01:55;;;;;;;19.60;11.52;;;;;10.40;101624.00;;;;5015037;28;20287;-75
2022/12/05 03:04:24;;;;;;;18.88;11.68;;;;;10.40;101628.00;;;;5010189;28;20217;-75
2022/12/05 03:06:56;;;;;;;19.02;11.45;;;;;10.40;101629.00;;;;5009984;28;20209;-75
2022/12/05 03:09:28;;;;;;;20.65;11.40;;;;;10.40;101628.00;;;;5010214;28;20208;-75
2022/12/05 03:12:00;;;;;;;17.20;11.05;;;;;10.40;101619.00;;;;5015205;28;22240;-75
2022/12/05 03:14:33;;;;;;;18.48;10.95;;;;;10.40;101625.00;;;;5018266;28;20195;-75
2022/12/05 03:17:06;;;;;;;15.75;10.98;;;;;10.40;101625.00;;;;5027680;28;20201;-75
2022/12/05 03:19:43;;;;;;;14.63;9.73;;;;;10.40;101628.00;;;;5008226;28;20201;-75
2022/12/05 03:22:18;;;;;;;20.17;11.50;;;;;10.40;101628.00;;;;5016924;28;20208;-75
2022/12/05 03:24:46;;;;;;;16.25;10.70;;;;;10.50;101629.00;;;;5022462;28;20200;-75
2022/12/05 03:27:21;;;;;;;18.55;11.07;;;;;10.50;101635.00;;;;5010133;28;20200;-75
2022/12/05 03:29:55;;;;;;;17.02;10.48;;;;;10.50;101630.00;;;;5013934;28;20249;-75
2022/12/05 03:32:29;;;;;;;16.48;10.88;;;;;10.50;101635.00;;;;5008812;28;20244;-75
2022/12/05 03:35:04;;;;;;;19.05;10.93;;;;;10.50;101631.00;;;;5008388;28;20312;-75
2022/12/05 03:37:41;;;;;;;16.13;9.82;;;;;10.50;101638.00;;;;5009803;28;20224;-75
2022/12/05 03:40:19;;;;;;;17.35;10.35;;;;;10.50;101648.00;;;;5026638;28;20207;-75
2022/12/05 03:42:53;;;;;;;16.02;10.68;;;;;10.50;101638.00;;;;5010984;28;20200;-75
2022/12/05 03:45:27;;;;;;;17.27;11.35;;;;;10.50;101638.00;;;;5009276;28;20214;-75
2022/12/05 03:48:06;;;;;;;17.38;10.45;;;;;10.50;101650.00;;;;5009828;28;20192;-75
2022/12/05 03:50:37;;;;;;;16.92;10.75;;;;;10.60;101644.00;;;;5009938;28;20192;-75
2022/12/05 03:53:10;;;;;;;17.15;11.23;;;;;10.60;101649.00;;;;5009317;28;20359;-75
2022/12/05 03:55:40;;;;;;;16.10;10.07;;;;;10.60;101656.00;;;;5017912;28;20197;-75
2022/12/05 03:58:11;;;;;;;18.45;10.63;;;;;10.60;101653.00;;;;5022143;28;20662;-74
2022/12/05 04:00:43;;;;;;;15.63;10.48;;;;;10.60;101658.00;;;;5012473;28;20199;-74
2022/12/05 04:03:18;;;;;;;15.48;10.38;;;;;10.60;101653.00;;;;5021926;28;20220;-74
2022/12/05 04:05:48;;;;;;;15.75;9.65;;;;;10.70;101643.00;;;;5027934;28;20211;-74
2022/12/05 04:08:21;;;;;;;17.23;10.43;;;;;10.60;101654.00;;;;5018488;28;20201;-74
2022/12/05 04:10:53;;;;;;;17.13;10.38;;;;;10.70;101655.00;;;;5009562;28;20212;-74
2022/12/05 04:13:25;;;;;;;13.65;9.75;;;;;10.70;101649.00;;;;5018653;28;20259;-74
2022/12/05 04:18:50;;;;;;;15.50;9.60;;;;;10.70;101654.00;;;;4978513;28;20204;-74
2022/12/05 04:21:37;;;;;;;16.27;10.05;;;;;10.70;101648.00;;;;5008626;28;20671;-74
2022/12/05 04:27:04;;;;;;;14.73;9.68;;;;;10.70;101656.00;;;;5008200;28;20216;-74
2022/12/05 04:29:37;;;;;;;19.65;10.90;;;;;10.70;101652.00;;;;5008641;28;20205;-74
2022/12/05 04:32:10;;;;;;;14.20;9.77;;;;;10.70;101652.00;;;;5019054;28;20196;-74
2022/12/05 04:34:40;;;;;;;16.75;10.80;;;;;10.70;101649.00;;;;5009355;28;20233;-74
2022/12/05 04:37:13;;;;;;;15.80;10.18;;;;;10.70;101649.00;;;;5013561;28;20193;-75
2022/12/05 04:39:45;;;;;;;15.15;8.90;;;;;10.80;101646.00;;;;5023943;28;20209;-74
2022/12/05 04:42:17;;;;;;;16.30;9.85;;;;;10.80;101645.00;;;;5017239;28;20663;-75
2022/12/05 04:44:49;;;;;;;13.77;9.40;;;;;10.80;101644.00;;;;5016946;28;20741;-74
2022/12/05 04:47:19;;;;;;;14.75;8.80;;;;;10.80;101643.00;;;;5015746;28;20216;-74
2022/12/05 04:49:48;;;;;;;14.90;8.95;;;;;10.80;101646.00;;;;5016836;28;20212;-74
2022/12/05 04:52:16;;;;;;;15.48;8.93;;;;;10.90;101647.00;;;;5025991;28;20224;-74
2022/12/05 04:54:48;;;;;;;14.60;9.32;;;;;10.90;101653.00;;;;5023678;28;21246;-75
2022/12/05 04:57:20;;;;;;;15.23;9.48;;;;;10.90;101651.00;;;;5025355;28;20206;-75
2022/12/05 04:59:48;;;;;;;15.43;9.25;;;;;10.90;101641.00;;;;5024509;28;20208;-75
2022/12/05 05:02:19;;;;;;;14.60;8.95;;;;;10.90;101647.00;;;;5008557;28;20205;-75
2022/12/05 05:04:50;;;;;;;15.43;9.55;;;;;10.90;101649.00;;;;5009058;28;21004;-75
2022/12/05 05:07:18;;;;;;;15.85;9.65;;;;;10.90;101648.00;;;;5014222;28;20239;-75
2022/12/05 05:09:46;;;;;;;15.00;9.10;;;;;10.90;101653.00;;;;5029981;28;20196;-75
2022/12/05 05:12:13;;;;;;;14.35;9.32;;;;;10.90;101646.00;;;;5021831;28;20212;-75
2022/12/05 05:14:40;;;;;;;13.82;9.60;;;;;11.00;101650.00;;;;5031041;28;20689;-75
2022/12/05 05:17:08;;;;;;;15.80;9.30;;;;;10.90;101652.00;;;;5013603;28;20197;-75
2022/12/05 05:19:35;;;;;;;13.88;8.88;;;;;11.00;101650.00;;;;5012004;28;20201;-75
2022/12/05 05:22:04;;;;;;;15.85;9.65;;;;;10.90;101646.00;;;;5030641;28;20200;-75
2022/12/05 05:24:31;;;;;;;15.50;9.82;;;;;11.00;101655.00;;;;5024047;28;20200;-75
2022/12/05 05:26:58;;;;;;;14.07;9.95;;;;;10.90;101654.00;;;;5013008;28;20200;-75
2022/12/05 05:29:26;;;;;;;13.93;9.25;;;;;10.90;101661.00;;;;5012508;28;20197;-75
2022/12/05 05:31:53;;;;;;;15.55;9.02;;;;;10.90;101656.00;;;;5011815;28;20212;-75
2022/12/05 05:34:20;;;;;;;15.85;9.30;;;;;10.90;101655.00;;;;5011274;28;20229;-75
2022/12/05 05:36:52;;;;;;;14.55;9.20;;;;;10.90;101655.00;;;;5011607;28;20200;-75
2022/12/05 05:39:21;;;;;;;14.82;9.75;;;;;10.90;101659.00;;;;5009804;28;20228;-75
2022/12/05 05:41:49;;;;;;;14.57;9.07;;;;;10.90;101653.00;;;;5026395;28;20193;-75
2022/12/05 05:44:16;;;;;;;13.20;8.65;;;;;10.90;101663.00;;;;5022396;28;20208;-75
2022/12/05 05:46:44;;;;;;;14.07;8.90;;;;;11.00;101667.00;;;;5029813;28;20208;-75
2022/12/05 05:49:11;;;;;;;12.18;8.57;;;;;11.00;101661.00;;;;5021420;28;20205;-75
2022/12/05 05:51:39;;;;;;;14.38;10.18;;;;;11.00;101660.00;;;;5031510;28;20203;-75
2022/12/05 05:54:06;;;;;;;14.20;9.15;;;;;11.00;101661.00;;;;5017468;28;20212;-75
2022/12/05 05:56:35;;;;;;;13.73;9.02;;;;;11.00;101662.00;;;;5025454;28;20197;-75
2022/12/05 05:59:03;;;;;;;13.27;8.68;;;;;11.00;101654.00;;;;5014918;28;20204;-75
2022/12/05 06:01:31;;;;;;;14.63;9.00;;;;;11.00;101660.00;;;;5020392;28;20203;-75
2022/12/05 06:03:58;;;;;;;13.35;8.45;;;;;11.10;101656.00;;;;5017668;28;20212;-74
2022/12/05 06:06:26;;;;;;;15.93;9.10;;;;;11.10;101664.00;;;;5028816;28;20197;-74
2022/12/05 06:08:54;;;;;;;13.23;8.73;;;;;11.00;101659.00;;;;5023948;28;20212;-74
2022/12/05 06:11:23;;;;;;;13.77;9.35;;;;;11.10;101665.00;;;;5016529;28;20266;-74
2022/12/05 06:13:52;;;;;;;15.13;9.35;;;;;11.10;101660.00;;;;5014315;28;20668;-74
2022/12/05 06:16:20;;;;;;;16.27;10.20;;;;;11.10;101658.00;;;;5020696;28;20197;-74
2022/12/05 06:18:48;;;;;;;14.65;9.63;;;;;11.10;101662.00;;;;5022809;28;20315;-75
2022/12/05 06:21:16;;;;;;;13.20;8.73;;;;;11.10;101663.00;;;;5027387;28;20258;-75
2022/12/05 06:23:43;;;;;;;11.75;8.35;;;;;11.10;101668.00;;;;5030752;28;21003;-74
2022/12/05 06:26:12;;;;;;;14.00;8.75;;;;;11.10;101656.00;;;;5029566;28;20672;-75
2022/12/05 06:28:40;;;;;;;13.80;8.82;;;;;11.20;101665.00;;;;5020437;28;20197;-75
2022/12/05 06:31:10;;;;;;;14.93;9.73;;;;;11.10;101663.00;;;;5011385;28;20690;-75
2022/12/05 06:33:38;;;;;;;16.55;10.13;;;;;11.20;101671.00;;;;5010297;28;20323;-75
2022/12/05 06:36:07;;;;;;;16.20;9.60;;;;;11.20;101672.00;;;;5012508;28;20228;-74
2022/12/05 06:38:34;;;;;;;15.60;9.60;;;;;11.20;101675.00;;;;5021848;28;20199;-74
2022/12/05 06:41:05;;;;;;;15.35;9.50;;;;;11.10;101674.00;;;;5011613;28;20212;-75
2022/12/05 06:43:33;;;;;;;14.40;8.90;;;;;11.20;101672.00;;;;5012836;28;20197;-74
2022/12/05 06:46:03;;;;;;;16.38;9.63;;;;;11.20;101659.00;;;;5015547;28;20201;-74
2022/12/05 06:48:32;;;;;;;13.73;9.25;;;;;11.20;101677.00;;;;5013208;28;20566;-75
2022/12/05 06:50:59;;;;;;;15.25;9.13;;;;;11.20;101677.00;;;;5017022;28;20212;-74
2022/12/05 06:53:27;;;;;;;15.00;9.25;;;;;11.20;101679.00;;;;5017448;28;20322;-73
2022/12/05 06:55:59;;;;;;;15.80;9.55;;;;;11.20;101683.00;;;;5017905;28;20193;-73
2022/12/05 06:58:27;;;;;;;14.43;9.40;;;;;11.30;101687.00;;;;5019632;28;20192;-74
2022/12/05 07:03:50;;;;;;;14.73;9.18;;;;;11.30;101692.00;;;;4990003;28;21030;-74
2022/12/05 07:06:18;;;;;;;12.48;7.90;;;;;11.30;101690.00;;;;5025317;28;20207;-73
2022/12/05 07:08:46;;;;;;;11.10;8.48;;;;;11.40;101693.00;;;;5020428;28;20550;-73
2022/12/05 07:11:13;;;;;;;14.20;8.75;;;;;11.40;101689.00;;;;5023795;28;20201;-73
2022/12/05 07:13:40;;;;;;;14.00;9.70;;;;;11.40;101692.00;;;;5013478;28;20235;-74
2022/12/05 07:16:08;;;;;;;14.40;8.52;;;;;11.40;101694.00;;;;5026524;28;20231;-74
2022/12/05 07:18:36;;;;;;;15.35;9.05;;;;;11.40;101697.00;;;;5011440;28;20667;-74
2022/12/05 07:21:07;;;;;;;15.88;9.40;;;;;11.40;101689.00;;;;5009276;28;20652;-74
2022/12/05 07:23:35;;;;;;;13.07;8.43;;;;;11.40;101704.00;;;;5014001;28;20211;-74
2022/12/05 07:26:06;;;;;;;15.93;8.60;;;;;11.40;101700.00;;;;5020009;28;20228;-74
2022/12/05 07:28:33;;;;;;;15.23;9.35;;;;;11.50;101698.00;;;;5026005;28;20686;-74
2022/12/05 07:31:01;;;;;;;14.40;9.00;;;;;11.50;101705.00;;;;5008527;28;20197;-74
2022/12/05 07:33:29;;;;;;;14.93;9.32;;;;;11.50;101700.00;;;;5008857;28;20718;-74
2022/12/05 07:36:00;;;;;;;12.95;8.43;;;;;11.50;101707.00;;;;5007975;28;20229;-74
2022/12/05 07:38:29;;;;;;;15.75;9.77;;;;;11.50;101702.00;;;;5007293;28;20690;-74
2022/12/05 07:40:57;;;;;;;14.10;8.93;;;;;11.60;101713.00;;;;5007320;28;20213;-74
2022/12/05 07:43:24;;;;;;;13.52;8.55;;;;;11.60;101707.00;;;;5008726;28;20208;-74
2022/12/05 07:45:52;;;;;;;15.15;9.07;;;;;11.60;101710.00;;;;5008390;28;20210;-74
2022/12/05 07:48:19;;;;;;;13.35;8.95;;;;;11.60;101712.00;;;;5009365;28;20193;-73
2022/12/05 07:50:46;;;;;;;14.23;8.98;;;;;11.60;101725.00;;;;5010612;28;20781;-73
2022/12/05 07:53:13;;;;;;;12.10;7.80;;;;;11.60;101723.00;;;;5025709;28;20698;-74
2022/12/05 07:55:42;;;;;;;13.30;8.38;;;;;11.60;101727.00;;;;5013412;28;20571;-74
2022/12/05 07:58:09;;;;;;;14.23;8.93;;;;;11.70;101719.00;;;;5013075;28;20211;-74
2022/12/05 08:00:36;;;;;;;14.05;9.25;;;;;11.70;101735.00;;;;5019472;28;20201;-74
2022/12/05 08:03:04;;;;;;;13.38;9.00;;;;;11.70;101726.00;;;;5018695;28;20234;-74
2022/12/05 08:05:33;;;;;;;13.25;9.50;;;;;11.70;101725.00;;;;5012984;28;20210;-74
2022/12/05 08:08:00;;;;;;;13.80;9.20;;;;;11.70;101729.00;;;;5013999;28;20212;-74
2022/12/05 08:10:27;;;;;;;13.13;8.05;;;;;11.80;101729.00;;;;5020818;28;20231;-74
2022/12/05 08:12:56;;;;;;;14.20;8.38;;;;;11.80;101728.00;;;;5018077;28;20590;-74
2022/12/05 08:15:23;;;;;;;12.88;8.55;;;;;11.80;101733.00;;;;5010632;28;20563;-74
2022/12/05 08:17:50;;;;;;;13.05;9.13;;;;;11.80;101730.00;;;;5012750;28;20216;-74
2022/12/05 08:20:18;;;;;;;15.02;9.40;;;;;11.80;101726.00;;;;5020920;28;20231;-74
2022/12/05 08:22:45;;;;;;;12.85;7.97;;;;;11.80;101729.00;;;;5026200;28;20216;-74
2022/12/05 08:25:12;;;;;;;11.43;7.78;;;;;11.80;101737.00;;;;5016215;28;20741;-74
2022/12/05 08:27:39;;;;;;;15.27;9.05;;;;;11.80;101735.00;;;;5012240;28;20201;-74
2022/12/05 08:30:09;;;;;;;14.18;9.10;;;;;11.80;101741.00;;;;5020994;28;20204;-74
2022/12/05 08:32:36;;;;;;;12.93;7.95;;;;;11.80;101736.00;;;;5016841;28;20199;-74
2022/12/05 08:35:04;;;;;;;12.18;8.13;;;;;11.80;101747.00;;;;5008372;28;20232;-75
2022/12/05 08:37:31;;;;;;;12.77;8.20;;;;;11.80;101744.00;;;;5007455;28;20216;-74
2022/12/05 08:39:58;;;;;;;13.57;8.32;;;;;11.80;101748.00;;;;5021245;28;20204;-74
2022/12/05 08:42:26;;;;;;;11.25;7.88;;;;;11.80;101746.00;;;;5008040;28;20204;-74
2022/12/05 08:44:53;;;;;;;13.10;8.43;;;;;11.90;101750.00;;;;5012346;28;20204;-75
2022/12/05 08:47:21;;;;;;;13.85;8.38;;;;;11.80;101749.00;;;;5016485;28;20734;-74
2022/12/05 08:49:49;;;;;;;13.75;8.50;;;;;11.90;101751.00;;;;5012361;28;20204;-74
2022/12/05 08:52:16;;;;;;;12.82;8.50;;;;;11.90;101758.00;;;;5019941;28;20192;-74
2022/12/05 08:54:43;;;;;;;12.80;8.05;;;;;11.90;101754.00;;;;5016538;28;20239;-75
2022/12/05 08:57:11;;;;;;;13.63;9.15;;;;;11.90;101765.00;;;;5014200;28;20199;-74
2022/12/05 08:59:38;;;;;;;13.43;8.57;;;;;11.90;101764.00;;;;5010635;28;20197;-74
2022/12/05 09:02:05;;;;;;;11.85;8.38;;;;;11.90;101773.00;;;;5008689;28;20291;-74
2022/12/05 09:04:34;;;;;;;12.38;7.13;;;;;11.90;101765.00;;;;5010885;28;20227;-75
2022/12/05 09:07:02;;;;;;;11.50;7.85;;;;;12.00;101763.00;;;;5012315;28;20200;-74
2022/12/05 09:09:31;;;;;;;11.43;8.30;;;;;12.00;101770.00;;;;5009206;28;20197;-74
2022/12/05 09:11:59;;;;;;;12.88;8.07;;;;;12.00;101769.00;;;;5008410;28;20201;-74
2022/12/05 09:14:31;;;;;;;12.32;8.07;;;;;12.00;101767.00;;;;5009185;28;20701;-74
2022/12/05 09:17:00;;;;;;;11.93;7.72;;;;;12.00;101765.00;;;;5015076;28;20208;-75
2022/12/05 09:19:28;;;;;;;13.95;8.07;;;;;12.00;101767.00;;;;5013462;28;20254;-74
2022/12/05 09:21:57;;;;;;;12.45;8.15;;;;;12.00;101768.00;;;;5015028;28;20193;-75
2022/12/05 09:24:24;;;;;;;12.13;7.65;;;;;12.10;101774.00;;;;5017178;28;20200;-75
2022/12/05 09:26:51;;;;;;;13.32;7.85;;;;;12.10;101776.00;;;;5010334;28;20201;-75
2022/12/05 09:29:19;;;;;;;12.38;8.07;;;;;12.10;101770.00;;;;5016277;28;20608;-75
2022/12/05 09:31:50;;;;;;;11.73;8.02;;;;;12.10;101780.00;;;;5007394;28;20212;-75
2022/12/05 09:34:18;;;;;;;11.43;7.63;;;;;12.10;101787.00;;;;5010447;28;20227;-75
2022/12/05 09:36:50;;;;;;;11.55;7.85;;;;;12.10;101780.00;;;;5008876;28;20663;-74
2022/12/05 09:39:19;;;;;;;11.05;6.97;;;;;12.10;101777.00;;;;5011247;28;20212;-74
2022/12/05 09:42:17;;;;;;;8.85;6.97;;;;;12.10;101783.00;;;;5010246;28;20236;-74
2022/12/05 09:44:55;;;;;;;13.57;7.35;;;;;12.10;101787.00;;;;5000132;28;20205;-74
2022/12/05 09:47:34;;;;;;;11.60;7.25;;;;;12.20;101791.00;;;;5012423;28;20212;-74
2022/12/05 09:50:12;;;;;;;11.10;7.68;;;;;12.20;101791.00;;;;5010605;28;20193;-75
2022/12/05 09:52:41;;;;;;;10.52;7.22;;;;;12.20;101791.00;;;;5016215;28;20230;-75
2022/12/05 09:55:16;;;;;;;11.60;7.65;;;;;12.20;101788.00;;;;5013744;28;20213;-75
2022/12/05 09:57:48;;;;;;;10.38;8.20;;;;;12.30;101788.00;;;;5009249;28;20207;-75
2022/12/05 10:00:16;;;;;;;10.60;7.43;;;;;12.30;101788.00;;;;4992877;28;20189;-75
2022/12/05 10:02:53;;;;;;;11.02;6.97;;;;;12.30;101793.00;;;;5009052;28;20209;-75
2022/12/05 10:05:29;;;;;;;11.38;7.68;;;;;12.30;101790.00;;;;5014285;28;20220;-75
2022/12/05 10:08:08;;;;;;;20.08;16.95;;;;;12.30;101792.00;;;;5019559;28;20283;-75
2022/12/05 10:10:48;;;;;;;13.63;11.75;;;;;12.30;101796.00;;;;5012230;28;21095;-75
2022/12/05 10:13:38;;;;;;;11.95;7.82;;;;;12.30;101792.00;;;;5018242;28;20211;-75
2022/12/05 10:16:12;;;;;;;10.07;7.88;;;;;12.30;101792.00;;;;5008770;28;20693;-75
2022/12/05 10:18:43;;;;;;;11.32;8.32;;;;;12.40;101798.00;;;;5014708;28;20204;-75
2022/12/05 10:21:16;;;;;;;10.65;7.22;;;;;12.40;101793.00;;;;5019385;28;20205;-75
2022/12/05 10:23:53;;;;;;;12.10;8.07;;;;;12.30;101795.00;;;;5009430;28;21091;-75
2022/12/05 10:26:24;;;;;;;9.20;6.25;;;;;12.40;101793.00;;;;5014857;28;20197;-75
2022/12/05 10:28:56;;;;;;;12.20;8.18;;;;;12.40;101800.00;;;;5013599;28;20193;-75
2022/12/05 10:31:27;;;;;;;10.63;7.57;;;;;12.40;101797.00;;;;5018645;28;20201;-75
2022/12/05 10:34:01;;;;;;;10.23;7.38;;;;;12.40;101798.00;;;;5010297;28;20229;-75
2022/12/05 10:36:30;;;;;;;9.85;7.38;;;;;12.40;101798.00;;;;5009565;28;20307;-75
2022/12/05 10:38:58;;;;;;;10.32;7.28;;;;;12.40;101794.00;;;;5010799;28;20197;-75
2022/12/05 10:41:28;;;;;;;9.10;6.70;;;;;12.40;101792.00;;;;5010533;28;20205;-75
2022/12/05 10:43:58;;;;;;;9.13;7.13;;;;;12.40;101795.00;;;;5015955;28;20201;-75
2022/12/05 10:46:26;;;;;;;10.07;7.10;;;;;12.40;101800.00;;;;5015675;28;20728;-75
2022/12/05 10:48:55;;;;;;;8.45;6.03;;;;;12.40;101788.00;;;;5010219;28;20271;-75
2022/12/05 10:51:27;;;;;;;9.07;6.40;;;;;12.40;101784.00;;;;5012134;28;20203;-75
2022/12/05 10:53:56;;;;;;;8.80;6.35;;;;;12.40;101779.00;;;;5010653;28;20201;-75
2022/12/05 10:56:43;;;;;;;9.48;6.38;;;;;12.40;101775.00;;;;5018692;28;20689;-75
2022/12/05 10:59:12;;;;;;;8.10;6.35;;;;;12.50;101776.00;;;;5013126;28;20820;-75
2022/12/05 11:01:45;;;;;;;8.50;7.10;;;;;12.40;101775.00;;;;5009426;28;20614;-75
2022/12/05 11:04:22;;;;;;;7.93;6.22;;;;;12.40;101776.00;;;;5013843;28;20231;-76
2022/12/05 11:06:52;;;;;;;8.43;5.97;;;;;12.50;101782.00;;;;5012038;28;20577;-76
2022/12/05 11:09:22;;;;;;;8.98;7.28;;;;;12.50;101776.00;;;;5015602;28;20293;-76
2022/12/05 11:12:15;;;;;;;9.75;7.20;;;;;12.50;101783.00;;;;5007981;28;20680;-76
2022/12/05 11:14:58;;;;;;;8.13;6.18;;;;;12.50;101780.00;;;;5011863;28;20240;-76
2022/12/05 11:17:30;;;;;;;7.80;5.55;;;;;12.60;101774.00;;;;5005569;28;20207;-76
2022/12/05 11:19:57;;;;;;;7.03;5.63;;;;;12.60;101766.00;;;;5018514;28;20204;-76
2022/12/05 11:22:32;;;;;;;8.18;6.47;;;;;12.60;101774.00;;;;5012428;28;20188;-76
2022/12/05 11:25:00;;;;;;;8.43;5.63;;;;;12.70;101770.00;;;;5006924;28;20193;-76
2022/12/05 11:27:32;;;;;;;12.05;7.18;;;;;12.60;101782.00;;;;5013806;28;20625;-76
2022/12/05 11:30:02;;;;;;;9.48;6.55;;;;;12.70;101774.00;;;;5015979;28;20562;-76
2022/12/05 11:32:31;;;;;;;8.13;6.38;;;;;12.70;101782.00;;;;5011686;28;20205;-76
2022/12/05 11:35:24;;;;;;;8.50;6.47;;;;;12.60;101773.00;;;;5013761;28;20236;-76
2022/12/05 11:37:55;;;;;;;8.23;5.65;;;;;12.70;101771.00;;;;5012412;28;20193;-76
2022/12/05 11:40:30;;;;;;;7.13;4.85;;;;;12.70;101778.00;;;;5009634;28;20205;-76
2022/12/05 11:43:19;;;;;;;5.00;3.95;;;;;12.70;101774.00;;;;5012592;28;20188;-76
2022/12/05 11:45:59;;;;;;;4.68;3.80;;;;;12.70;101772.00;;;;5025883;28;20200;-76
2022/12/05 11:48:43;;;;;;;3.47;3.00;;;;;12.70;101764.00;;;;5021232;28;20204;-76
2022/12/05 11:51:36;;;;;;;4.43;3.15;;;;;12.60;101774.00;;;;5025234;28;20195;-76
2022/12/05 11:54:57;;;;;;;2.55;2.22;;;;;12.60;101774.00;;;;5008573;28;20196;-76
2022/12/05 11:57:40;;;;;;;2.92;2.25;;;;;12.60;101773.00;;;;4944949;29;20218;-76
2022/12/05 12:00:20;;;;;;;2.28;1.90;;;;;12.60;101770.00;;;;5007274;28;20196;-76
2022/12/05 12:03:22;;;;;;;2.83;2.13;;;;;12.60;101773.00;;;;5006294;28;20204;-76
2022/12/05 12:06:00;;;;;;;3.40;2.00;;;;;12.60;101783.00;;;;5019393;28;20203;-76
2022/12/05 12:08:30;;;;;;;2.33;1.95;;;;;12.60;101785.00;;;;5007379;28;20203;-76
2022/12/05 12:11:08;;;;;;;2.40;2.00;;;;;12.60;101780.00;;;;5007446;28;20192;-76
2022/12/05 12:13:47;;;;;;;2.10;1.42;;;;;12.50;101779.00;;;;5016069;28;20208;-75
2022/12/05 12:16:21;;;;;;;2.85;2.00;;;;;12.60;101780.00;;;;5008693;28;20247;-74
2022/12/05 12:19:21;;;;;;;3.03;2.20;;;;;12.50;101779.00;;;;5004419;28;20220;-76
2022/12/05 12:22:04;;;;;;;2.08;1.88;;;;;12.50;101771.00;;;;4995502;28;20200;-76
2022/12/05 12:24:46;;;;;;;2.55;1.60;;;;;12.60;101774.00;;;;5012306;28;20201;-76
2022/12/05 12:27:25;;;;;;;2.78;2.08;;;;;12.60;101766.00;;;;5011427;28;20583;-76